createdAt,value
2022-09-24T00:02:41.318Z,10.63
2022-09-24T00:05:29.293Z,10.66
2022-09-24T00:08:20.158Z,10.64
2022-09-24T00:11:12.103Z,10.62
2022-09-24T00:14:00.714Z,10.60
2022-09-24T00:16:49.833Z,10.62
2022-09-24T00:19:38.152Z,10.59
2022-09-24T00:22:25.975Z,10.57
2022-09-24T00:25:33.463Z,10.53
2022-09-24T00:28:21.656Z,10.53
2022-09-24T00:31:09.876Z,10.53
2022-09-24T00:33:59.209Z,10.52
2022-09-24T00:36:47.356Z,10.51
2022-09-24T00:39:35.777Z,10.51
2022-09-24T00:42:23.617Z,10.49
2022-09-24T00:45:11.815Z,10.50
2022-09-24T00:47:59.980Z,10.52
2022-09-24T00:50:48.706Z,10.56
2022-09-24T00:53:37.025Z,10.59
2022-09-24T00:56:25.744Z,10.63
2022-09-24T00:59:18.476Z,10.59
2022-09-24T01:02:07.968Z,10.55
2022-09-24T01:04:56.716Z,10.54
2022-09-24T01:07:48.332Z,10.49
2022-09-24T01:10:58.586Z,10.46
2022-09-24T01:13:55.432Z,10.50
2022-09-24T01:17:21.035Z,10.52
2022-09-24T01:20:21.875Z,10.47
2022-09-24T01:23:43.823Z,10.47
2022-09-24T01:26:58.964Z,10.43
2022-09-24T01:30:02.790Z,10.43
2022-09-24T01:32:58.159Z,10.45
2022-09-24T01:35:58.000Z,10.46
2022-09-24T01:38:50.461Z,10.43
2022-09-24T01:41:40.112Z,10.39
2022-09-24T01:44:29.331Z,10.40
2022-09-24T01:47:23.985Z,10.45
2022-09-24T01:50:14.511Z,10.47
2022-09-24T01:53:07.342Z,10.49
2022-09-24T01:56:01.288Z,10.50
2022-09-24T01:59:01.216Z,10.51
2022-09-24T02:02:28.872Z,10.46
2022-09-24T02:05:26.134Z,10.39
2022-09-24T02:08:23.683Z,10.33
2022-09-24T02:11:16.380Z,10.33
2022-09-24T02:14:12.340Z,10.32
2022-09-24T02:17:03.775Z,10.33
2022-09-24T02:19:55.000Z,10.32
2022-09-24T02:22:49.107Z,10.29
2022-09-24T02:26:12.348Z,10.28
2022-09-24T02:29:00.385Z,10.30
2022-09-24T02:31:53.641Z,10.31
2022-09-24T02:34:47.307Z,10.35
2022-09-24T02:37:41.796Z,10.40
2022-09-24T02:40:31.675Z,10.41
2022-09-24T02:43:19.582Z,10.36
2022-09-24T02:46:11.488Z,10.36
2022-09-24T02:48:59.621Z,10.35
2022-09-24T02:51:48.245Z,10.33
2022-09-24T02:54:36.069Z,10.35
2022-09-24T02:57:24.321Z,10.34
2022-09-24T03:00:12.776Z,10.36
2022-09-24T03:03:01.664Z,10.40
2022-09-24T03:05:53.157Z,10.37
2022-09-24T03:08:43.681Z,10.41
2022-09-24T03:11:33.148Z,10.46
2022-09-24T03:14:21.952Z,10.52
2022-09-24T03:17:09.781Z,10.57
2022-09-24T03:19:57.727Z,10.53
2022-09-24T03:22:46.297Z,10.46
2022-09-24T03:25:34.179Z,10.37
2022-09-24T03:28:22.161Z,10.37
2022-09-24T03:31:10.384Z,10.31
2022-09-24T03:33:59.365Z,10.23
2022-09-24T03:36:47.837Z,10.16
2022-09-24T03:39:36.895Z,10.15
2022-09-24T03:42:24.811Z,10.18
2022-09-24T03:45:12.981Z,10.16
2022-09-24T03:48:01.219Z,10.19
2022-09-24T03:50:49.396Z,10.17
2022-09-24T03:53:38.332Z,10.14
2022-09-24T03:56:26.452Z,10.15
2022-09-24T03:59:14.638Z,10.19
2022-09-24T04:02:02.506Z,10.23
2022-09-24T04:04:52.551Z,10.20
2022-09-24T04:07:40.502Z,10.18
2022-09-24T04:10:29.727Z,10.17
2022-09-24T04:13:19.194Z,10.16
2022-09-24T04:16:07.892Z,10.09
2022-09-24T04:18:55.736Z,10.07
2022-09-24T04:21:44.124Z,10.07
2022-09-24T04:24:32.301Z,10.07
2022-09-24T04:27:21.795Z,10.06
2022-09-24T04:30:12.828Z,10.05
2022-09-24T04:33:03.062Z,10.03
2022-09-24T04:35:51.255Z,10.04
2022-09-24T04:38:39.485Z,10.11
2022-09-24T04:41:27.607Z,10.13
2022-09-24T04:44:15.591Z,10.05
2022-09-24T04:47:03.663Z,10.03
2022-09-24T04:49:52.735Z,10.00
2022-09-24T04:52:40.633Z,9.97
2022-09-24T04:55:29.214Z,9.96
2022-09-24T04:58:17.020Z,9.94
2022-09-24T05:01:05.217Z,9.92
2022-09-24T05:03:53.795Z,9.92
2022-09-24T05:06:41.765Z,9.87
2022-09-24T05:09:32.167Z,9.86
2022-09-24T05:12:21.564Z,9.84
2022-09-24T05:15:10.379Z,9.88
2022-09-24T05:17:59.199Z,9.94
2022-09-24T05:20:47.347Z,9.98
2022-09-24T05:23:35.463Z,10.00
2022-09-24T05:26:41.949Z,9.98
2022-09-24T05:29:29.927Z,9.96
2022-09-24T05:32:21.149Z,9.94
2022-09-24T05:35:10.449Z,9.89
2022-09-24T05:37:58.982Z,9.89
2022-09-24T05:40:47.999Z,9.85
2022-09-24T05:43:36.128Z,9.84
2022-09-24T05:46:24.740Z,9.81
2022-09-24T05:49:12.775Z,9.80
2022-09-24T05:52:01.770Z,9.79
2022-09-24T05:54:49.749Z,9.79
2022-09-24T05:57:39.425Z,9.84
2022-09-24T06:00:27.331Z,9.89
2022-09-24T06:03:18.020Z,9.85
2022-09-24T06:06:07.785Z,9.84
2022-09-24T06:08:56.535Z,9.87
2022-09-24T06:11:44.488Z,9.88
2022-09-24T06:14:32.645Z,9.93
2022-09-24T06:17:21.652Z,9.92
2022-09-24T06:20:09.634Z,9.93
2022-09-24T06:22:57.908Z,9.92
2022-09-24T06:25:50.336Z,9.90
2022-09-24T06:28:39.697Z,9.82
2022-09-24T06:31:27.592Z,9.83
2022-09-24T06:34:16.225Z,9.84
2022-09-24T06:37:05.119Z,9.83
2022-09-24T06:39:56.595Z,9.84
2022-09-24T06:42:44.934Z,9.79
2022-09-24T06:45:34.284Z,9.77
2022-09-24T06:48:23.639Z,9.76
2022-09-24T06:51:11.640Z,9.76
2022-09-24T06:54:00.237Z,9.75
2022-09-24T06:56:49.147Z,9.79
2022-09-24T06:59:37.077Z,9.74
2022-09-24T07:02:24.975Z,9.73
2022-09-24T07:05:13.581Z,9.81
2022-09-24T07:08:01.558Z,9.88
2022-09-24T07:10:49.889Z,9.80
2022-09-24T07:13:37.993Z,9.76
2022-09-24T07:16:26.466Z,9.70
2022-09-24T07:19:14.347Z,9.75
2022-09-24T07:22:02.959Z,9.76
2022-09-24T07:24:51.003Z,9.84
2022-09-24T07:27:40.212Z,9.82
2022-09-24T07:30:28.166Z,9.79
2022-09-24T07:33:16.119Z,9.84
2022-09-24T07:36:09.097Z,9.85
2022-09-24T07:38:58.776Z,9.85
2022-09-24T07:41:47.583Z,9.85
2022-09-24T07:44:36.647Z,9.93
2022-09-24T07:47:25.393Z,9.94
2022-09-24T07:50:14.256Z,9.99
2022-09-24T07:53:13.482Z,9.99
2022-09-24T07:56:02.259Z,10.02
2022-09-24T07:58:53.904Z,10.09
2022-09-24T08:01:43.278Z,10.06
2022-09-24T08:04:31.975Z,9.99
2022-09-24T08:07:21.006Z,10.05
2022-09-24T08:10:10.226Z,9.97
2022-09-24T08:13:03.222Z,9.95
2022-09-24T08:16:02.423Z,9.86
2022-09-24T08:18:50.528Z,9.87
2022-09-24T08:21:40.430Z,9.90
2022-09-24T08:24:29.245Z,9.94
2022-09-24T08:27:17.949Z,10.00
2022-09-24T08:30:08.091Z,10.07
2022-09-24T08:32:56.689Z,10.00
2022-09-24T08:35:45.583Z,10.02
2022-09-24T08:38:35.155Z,10.04
2022-09-24T08:41:54.903Z,10.20
2022-09-24T08:48:34.677Z,10.23
2022-09-24T08:55:23.209Z,10.30
2022-09-24T08:58:17.486Z,10.33
2022-09-24T09:01:15.225Z,10.37
2022-09-24T09:04:23.710Z,10.39
2022-09-24T09:07:24.037Z,10.39
2022-09-24T09:10:19.486Z,10.25
2022-09-24T09:13:33.762Z,10.28
2022-09-24T09:16:55.204Z,10.37
2022-09-24T09:19:50.316Z,10.44
2022-09-24T09:23:06.544Z,10.46
2022-09-24T09:25:57.981Z,10.43
2022-09-24T09:29:07.267Z,10.50
2022-09-24T09:32:06.892Z,10.43
2022-09-24T09:35:34.528Z,10.42
2022-09-24T09:38:29.691Z,10.32
2022-09-24T09:41:40.480Z,10.58
2022-09-24T09:44:33.810Z,10.65
2022-09-24T09:47:48.490Z,10.52
2022-09-24T09:51:00.605Z,10.57
2022-09-24T09:54:17.799Z,10.54
2022-09-24T09:57:12.794Z,10.39
2022-09-24T10:00:12.199Z,10.41
2022-09-24T10:03:01.282Z,10.46
2022-09-24T10:05:59.041Z,10.39
2022-09-24T10:08:48.386Z,10.30
2022-09-24T10:11:38.437Z,10.26
2022-09-24T10:14:27.306Z,10.30
2022-09-24T10:17:18.518Z,10.30
2022-09-24T10:20:19.035Z,10.36
2022-09-24T10:23:31.446Z,10.41
2022-09-24T10:26:19.781Z,10.39
2022-09-24T10:29:33.642Z,10.42
2022-09-24T10:32:31.335Z,10.50
2022-09-24T10:35:45.927Z,10.65
2022-09-24T13:58:05.041Z,10.25
2022-09-24T14:00:54.665Z,10.20
2022-09-24T14:03:43.976Z,10.19
2022-09-24T14:06:40.324Z,10.14
2022-09-24T14:09:32.491Z,10.11
2022-09-24T14:12:22.574Z,10.05
2022-09-24T14:15:18.839Z,10.00
2022-09-24T14:18:15.093Z,10.01
2022-09-24T14:21:11.336Z,10.03
2022-09-24T14:24:19.710Z,10.07
2022-09-24T14:27:16.174Z,10.07
2022-09-24T14:30:09.646Z,9.98
2022-09-24T14:33:12.955Z,9.95
2022-09-24T14:36:06.513Z,9.92
2022-09-24T14:39:05.619Z,9.91
2022-09-24T14:41:55.451Z,9.91
2022-09-24T14:44:46.380Z,9.94
2022-09-24T14:47:37.341Z,10.00
2022-09-24T14:50:37.561Z,9.99
2022-09-24T14:53:37.907Z,9.99
2022-09-24T14:56:28.722Z,9.99
2022-09-24T14:59:31.394Z,10.02
2022-09-24T15:02:30.749Z,10.04
2022-09-24T15:05:24.763Z,10.03
2022-09-24T15:08:20.270Z,10.02
2022-09-24T15:11:17.721Z,9.95
2022-09-24T15:14:19.509Z,9.96
2022-09-24T15:17:10.888Z,10.01
2022-09-24T15:19:59.507Z,10.05
2022-09-24T15:22:48.330Z,10.11
2022-09-24T15:25:37.542Z,10.07
2022-09-24T15:28:29.540Z,10.08
2022-09-24T15:31:18.441Z,10.13
2022-09-24T15:34:06.533Z,10.13
2022-09-24T15:37:02.013Z,10.06
2022-09-24T15:39:52.394Z,10.00
2022-09-24T15:42:40.396Z,10.02
2022-09-24T15:45:28.838Z,10.00
2022-09-24T15:48:18.556Z,9.98
2022-09-24T15:51:11.810Z,9.96
2022-09-24T15:54:02.107Z,9.94
2022-09-24T15:56:53.519Z,9.92
2022-09-24T15:59:41.618Z,9.84
2022-09-24T16:02:32.824Z,9.79
2022-09-24T16:05:22.294Z,9.80
2022-09-24T16:08:10.653Z,9.85
2022-09-24T16:10:58.975Z,9.90
2022-09-24T16:13:47.303Z,9.89
2022-09-24T16:16:35.531Z,9.90
2022-09-24T16:19:24.161Z,9.96
2022-09-24T16:22:16.867Z,10.00
2022-09-24T16:25:09.360Z,10.02
2022-09-24T16:28:01.903Z,10.10
2022-09-24T16:30:50.601Z,10.14
2022-09-24T16:33:39.401Z,10.14
2022-09-24T16:36:27.857Z,10.10
2022-09-24T16:39:16.544Z,10.07
2022-09-24T16:42:05.090Z,10.07
2022-09-24T16:44:54.113Z,10.11
2022-09-24T16:47:42.357Z,10.14
2022-09-24T16:50:31.325Z,10.13
2022-09-24T16:53:19.803Z,10.15
2022-09-24T16:56:13.378Z,10.13
2022-09-24T16:59:02.356Z,10.07
2022-09-24T17:01:51.007Z,10.02
2022-09-24T17:04:39.891Z,9.96
2022-09-24T17:07:32.956Z,9.92
2022-09-24T17:10:24.267Z,9.89
2022-09-24T17:13:12.565Z,9.89
2022-09-24T17:16:02.195Z,9.91
2022-09-24T17:18:50.093Z,9.92
2022-09-24T17:21:40.962Z,9.89
2022-09-24T17:24:32.254Z,9.90
2022-09-24T17:27:20.697Z,9.88
2022-09-24T17:30:10.634Z,9.89
2022-09-24T17:32:59.378Z,9.85
2022-09-24T17:35:55.510Z,9.81
2022-09-24T17:38:52.737Z,9.78
2022-09-24T17:41:44.869Z,9.72
2022-09-24T17:44:36.898Z,9.68
2022-09-24T17:47:53.275Z,9.71
2022-09-24T17:50:44.006Z,9.70
2022-09-24T17:53:35.062Z,9.68
2022-09-24T17:56:26.318Z,9.68
2022-09-24T17:59:16.341Z,9.64
2022-09-24T18:02:07.029Z,9.64
2022-09-24T18:04:55.775Z,9.62
2022-09-24T18:07:44.382Z,9.58
2022-09-24T18:10:32.878Z,9.61
2022-09-24T18:13:21.845Z,9.62
2022-09-24T18:19:38.735Z,9.63
2022-09-24T18:22:30.752Z,9.60
2022-09-24T18:25:19.097Z,9.54
2022-09-24T18:28:09.938Z,9.54
2022-09-24T18:31:04.797Z,9.50
2022-09-24T18:33:54.631Z,9.54
2022-09-24T18:36:44.641Z,9.51
2022-09-24T18:39:33.571Z,9.45
2022-09-24T18:42:22.343Z,9.43
2022-09-24T18:45:11.510Z,9.44
2022-09-24T18:47:59.839Z,9.44
2022-09-24T18:50:51.295Z,9.41
2022-09-24T18:53:39.704Z,9.37
2022-09-24T18:56:28.738Z,9.38
2022-09-24T18:59:20.001Z,9.39
2022-09-24T19:02:16.288Z,9.40
2022-09-24T19:05:05.257Z,9.42
2022-09-24T19:07:54.710Z,9.46
2022-09-24T19:10:44.010Z,9.45
2022-09-24T19:13:33.095Z,9.43
2022-09-24T19:16:24.002Z,9.39
2022-09-24T19:19:13.183Z,9.36
2022-09-24T19:22:06.326Z,9.36
2022-09-24T19:24:55.159Z,9.32
2022-09-24T19:27:47.149Z,9.31
2022-09-24T19:30:46.002Z,9.31
2022-09-24T19:33:35.295Z,9.24
2022-09-24T19:36:24.108Z,9.20
2022-09-24T19:39:15.263Z,9.26
2022-09-24T19:42:03.898Z,9.26
2022-09-24T19:44:54.722Z,9.26
2022-09-24T19:47:43.464Z,9.24
2022-09-24T19:50:34.560Z,9.27
2022-09-24T19:53:22.603Z,9.26
2022-09-24T19:56:16.678Z,9.28
2022-09-24T19:59:06.090Z,9.28
2022-09-24T20:01:55.486Z,9.27
2022-09-24T20:04:44.363Z,9.27
2022-09-24T20:07:33.714Z,9.30
2022-09-24T20:10:22.049Z,9.30
2022-09-24T20:13:11.834Z,9.28
2022-09-24T20:16:02.276Z,9.26
2022-09-24T20:18:51.931Z,9.25
2022-09-24T20:21:40.639Z,9.23
2022-09-24T20:24:28.971Z,9.23
2022-09-24T20:27:35.663Z,9.25
2022-09-24T20:30:24.727Z,9.25
2022-09-24T20:33:13.422Z,9.24
2022-09-24T20:36:03.262Z,9.26
2022-09-24T20:38:51.865Z,9.23
2022-09-24T20:41:44.312Z,9.19
2022-09-24T20:44:33.202Z,9.17
2022-09-24T20:47:23.508Z,9.16
2022-09-24T20:50:12.655Z,9.19
2022-09-24T20:53:01.750Z,9.21
2022-09-24T20:55:49.683Z,9.21
2022-09-24T20:58:40.305Z,9.20
2022-09-24T21:01:29.315Z,9.20
2022-09-24T21:04:20.179Z,9.20
2022-09-24T21:07:08.516Z,9.19
2022-09-24T21:09:56.741Z,9.18
2022-09-24T21:12:50.201Z,9.18
2022-09-24T21:15:39.725Z,9.16
2022-09-24T21:18:38.360Z,9.20
2022-09-24T21:21:31.350Z,9.21
2022-09-24T21:24:19.484Z,9.23
2022-09-24T21:27:07.778Z,9.25
2022-09-24T21:29:55.894Z,9.24
2022-09-24T21:32:45.414Z,9.26
2022-09-24T21:35:33.516Z,9.26
2022-09-24T21:38:21.632Z,9.25
2022-09-24T21:41:09.885Z,9.26
2022-09-24T21:43:58.216Z,9.25
2022-09-24T21:46:47.670Z,9.23
2022-09-24T21:49:36.634Z,9.26
2022-09-24T21:52:24.839Z,9.24
2022-09-24T21:55:14.167Z,9.25
2022-09-24T21:58:02.390Z,9.25
2022-09-24T22:00:50.553Z,9.29
2022-09-24T22:03:39.537Z,9.33
2022-09-24T22:06:29.911Z,9.39
2022-09-24T22:09:18.848Z,9.37
2022-09-24T22:12:07.220Z,9.38
2022-09-24T22:14:55.412Z,9.45
2022-09-24T22:17:43.392Z,9.47
2022-09-24T22:20:31.648Z,9.52
2022-09-24T22:23:21.178Z,9.50
2022-09-24T22:26:10.727Z,9.49
2022-09-24T22:28:59.771Z,9.52
2022-09-24T22:31:48.249Z,9.54
2022-09-24T22:34:54.715Z,9.54
2022-09-24T22:37:42.734Z,9.55
2022-09-24T22:40:31.417Z,9.59
2022-09-24T22:43:19.690Z,9.60
2022-09-24T22:46:10.872Z,9.63
2022-09-24T22:48:59.826Z,9.57
2022-09-24T22:51:47.722Z,9.57
2022-09-24T22:54:36.219Z,9.60
2022-09-24T22:57:24.537Z,9.56
2022-09-24T23:00:13.103Z,9.52
2022-09-24T23:03:01.232Z,9.54
2022-09-24T23:05:49.474Z,9.56
2022-09-24T23:08:39.994Z,9.58
2022-09-24T23:11:30.344Z,9.57
2022-09-24T23:14:18.090Z,9.61
2022-09-24T23:17:07.616Z,9.71
2022-09-24T23:19:56.019Z,9.79
2022-09-24T23:22:43.823Z,9.84
2022-09-24T23:25:32.274Z,9.86
2022-09-24T23:28:19.986Z,9.84
2022-09-24T23:31:12.050Z,9.79
2022-09-24T23:34:01.408Z,9.72
2022-09-24T23:36:50.472Z,9.68
2022-09-24T23:39:39.003Z,9.66
2022-09-24T23:42:27.273Z,9.70
2022-09-24T23:45:15.527Z,9.68
2022-09-24T23:48:03.341Z,9.68
2022-09-24T23:50:51.489Z,9.69
2022-09-24T23:53:40.276Z,9.71
2022-09-24T23:56:28.540Z,9.70
2022-09-24T23:59:16.501Z,9.73
